Macomb, Illinois
Current Conditions -  °F | °C
As of 7:35 PM on Friday 21 Nov 2014 (Local Time) from KMQB Reporting Station
Overcast Overcast  
Wind Chill: 27°   Ceiling: 1900
Heat Index: 36°   Visibility: 10mi
Dew Point: 19°   Wind: 15mph
Humidity: 49%   Direction: 150°SSE
Pressure: 30.23"   Gusts: NA
Location:  40.46°N, 90.67°W
Report Text: KMQB 220135Z AUTO 15013KT 10SM BKN019 BKN025 OVC070 02/M07 A3023 RMK AO2 T00231075
Loading
Personal Weather Stations






























Interactive Weather Map New forecast layout! Learn more

10-Day Weather Forecast

Advertisements
Track Severe Weather on mobile